createdAt,value
2023-12-19T00:01:49.366Z,7.22
2023-12-19T00:04:17.989Z,7.94
2023-12-19T00:06:46.518Z,7.27
2023-12-19T00:09:15.079Z,7.97
2023-12-19T00:11:43.534Z,8.06
2023-12-19T00:14:11.929Z,7.99
2023-12-19T00:16:40.438Z,7.89
2023-12-19T00:19:10.773Z,7.19
2023-12-19T00:21:39.480Z,7.25
2023-12-19T00:24:08.082Z,8.05
2023-12-19T00:26:36.658Z,8.69
2023-12-19T00:29:05.957Z,7.94
2023-12-19T00:31:34.828Z,7.80
2023-12-19T00:34:03.457Z,7.82
2023-12-19T00:36:32.154Z,7.93
2023-12-19T00:39:00.915Z,8.34
2023-12-19T00:41:29.465Z,7.56
2023-12-19T00:43:57.968Z,7.30
2023-12-19T00:46:26.373Z,7.57
2023-12-19T00:48:55.977Z,8.25
2023-12-19T00:51:24.551Z,8.31
2023-12-19T00:53:53.035Z,7.87
2023-12-19T00:56:22.793Z,7.70
2023-12-19T00:58:51.347Z,8.00
2023-12-19T01:01:24.626Z,7.68
2023-12-19T01:03:53.306Z,7.90
2023-12-19T01:06:21.935Z,7.76
2023-12-19T01:08:50.618Z,7.42
2023-12-19T01:11:19.338Z,8.13
2023-12-19T01:13:47.729Z,8.34
2023-12-19T01:16:17.156Z,7.69
2023-12-19T01:18:45.761Z,8.06
2023-12-19T01:21:14.738Z,8.15
2023-12-19T01:23:43.928Z,7.13
2023-12-19T01:26:16.475Z,7.64
2023-12-19T01:28:48.985Z,7.21
2023-12-19T01:31:17.740Z,7.56
2023-12-19T01:33:46.421Z,7.14
2023-12-19T01:36:14.938Z,7.79
2023-12-19T01:38:43.363Z,8.06
2023-12-19T01:41:12.908Z,7.14
2023-12-19T01:43:41.432Z,7.00
2023-12-19T01:46:15.314Z,6.84
2023-12-19T01:48:44.424Z,6.92
2023-12-19T01:51:13.748Z,7.29
2023-12-19T01:53:45.661Z,7.05
2023-12-19T01:56:16.991Z,7.72
2023-12-19T01:58:46.843Z,7.50
2023-12-19T02:01:17.462Z,7.40
2023-12-19T02:03:47.313Z,8.24
2023-12-19T02:06:18.832Z,7.72
2023-12-19T02:08:47.503Z,8.54
2023-12-19T02:11:16.141Z,8.30
2023-12-19T02:13:46.284Z,8.17
2023-12-19T02:16:14.827Z,7.81
2023-12-19T02:18:44.549Z,8.03
2023-12-19T02:21:13.165Z,8.38
2023-12-19T02:23:41.624Z,7.79
2023-12-19T02:26:10.623Z,8.47
2023-12-19T02:28:39.063Z,7.42
2023-12-19T02:31:07.523Z,7.61
2023-12-19T02:33:36.217Z,7.63
2023-12-19T02:36:05.035Z,8.50
2023-12-19T02:38:33.502Z,7.51
2023-12-19T02:41:01.909Z,8.18
2023-12-19T02:43:30.419Z,8.28
2023-12-19T02:45:58.912Z,7.94
2023-12-19T02:48:27.511Z,7.96
2023-12-19T02:50:56.085Z,8.87
2023-12-19T02:53:24.602Z,8.87
2023-12-19T02:55:53.012Z,8.88
2023-12-19T02:58:21.836Z,8.71
2023-12-19T03:00:50.389Z,8.88
2023-12-19T03:03:18.889Z,8.34
2023-12-19T03:05:47.425Z,8.73
2023-12-19T03:08:16.000Z,7.77
2023-12-19T03:10:44.463Z,8.58
2023-12-19T03:13:12.966Z,7.95
2023-12-19T03:15:41.513Z,7.90
2023-12-19T03:18:10.333Z,7.44
2023-12-19T03:20:38.896Z,7.71
2023-12-19T03:23:07.349Z,7.50
2023-12-19T03:25:35.796Z,8.31
2023-12-19T03:28:04.817Z,7.39
2023-12-19T03:30:33.324Z,8.31
2023-12-19T03:33:01.883Z,8.41
2023-12-19T03:35:30.337Z,8.42
2023-12-19T03:37:59.249Z,8.06
2023-12-19T03:40:27.896Z,8.51
2023-12-19T03:42:56.381Z,8.68
2023-12-19T03:45:24.946Z,8.39
2023-12-19T03:47:53.577Z,8.32
2023-12-19T03:50:22.081Z,7.76
2023-12-19T03:52:50.944Z,8.30
2023-12-19T03:55:19.367Z,7.99
2023-12-19T03:57:47.831Z,7.82
2023-12-19T04:00:16.336Z,7.98
2023-12-19T04:02:44.971Z,8.06
2023-12-19T04:05:13.641Z,7.66
2023-12-19T04:07:42.090Z,7.64
2023-12-19T04:10:10.949Z,8.38
2023-12-19T04:12:39.573Z,8.73
2023-12-19T04:15:09.648Z,8.25
2023-12-19T04:17:38.185Z,7.60
2023-12-19T04:20:07.163Z,8.52
2023-12-19T04:22:35.707Z,8.60
2023-12-19T04:25:04.496Z,9.14
2023-12-19T04:27:33.332Z,8.72
2023-12-19T04:30:01.861Z,8.59
2023-12-19T04:32:30.354Z,7.49
2023-12-19T04:34:58.957Z,7.60
2023-12-19T04:37:27.485Z,8.07
2023-12-19T04:39:56.110Z,8.29
2023-12-19T04:42:25.406Z,8.12
2023-12-19T04:44:53.948Z,8.41
2023-12-19T04:47:22.550Z,7.96
2023-12-19T04:49:51.010Z,8.44
2023-12-19T04:52:20.131Z,8.67
2023-12-19T04:54:48.628Z,9.30
2023-12-19T04:57:17.067Z,8.67
2023-12-19T04:59:45.517Z,8.85
2023-12-19T05:02:13.948Z,8.73
2023-12-19T05:04:42.323Z,8.19
2023-12-19T05:07:11.762Z,8.54
2023-12-19T05:09:40.398Z,7.98
2023-12-19T05:12:08.920Z,8.04
2023-12-19T05:14:38.146Z,8.77
2023-12-19T05:17:07.391Z,8.78
2023-12-19T05:19:40.186Z,8.01
2023-12-19T05:22:12.567Z,8.64
2023-12-19T05:24:43.245Z,7.64
2023-12-19T05:27:11.797Z,8.87
2023-12-19T05:29:40.912Z,8.47
2023-12-19T05:32:09.439Z,8.10
2023-12-19T05:34:38.052Z,8.65
2023-12-19T05:37:06.695Z,8.19
2023-12-19T05:39:35.190Z,8.26
2023-12-19T05:42:04.275Z,8.84
2023-12-19T05:44:32.672Z,8.43
2023-12-19T05:47:01.192Z,8.92
2023-12-19T05:49:29.717Z,8.64
2023-12-19T05:51:59.071Z,9.06
2023-12-19T05:54:27.670Z,8.52
2023-12-19T05:56:56.136Z,9.09
2023-12-19T05:59:24.732Z,9.07
2023-12-19T06:01:53.240Z,9.37
2023-12-19T06:04:21.908Z,8.53
2023-12-19T06:06:50.581Z,8.79
2023-12-19T06:09:19.100Z,9.05
2023-12-19T06:11:47.532Z,9.17
2023-12-19T06:14:16.557Z,8.76
2023-12-19T06:16:45.193Z,9.22
2023-12-19T06:19:19.738Z,8.69
2023-12-19T06:21:48.211Z,7.66
2023-12-19T06:24:16.620Z,8.59
2023-12-19T06:26:47.542Z,9.33
2023-12-19T06:29:16.358Z,9.19
2023-12-19T06:31:50.437Z,9.47
2023-12-19T06:34:19.005Z,7.47
2023-12-19T06:36:47.548Z,8.08
2023-12-19T06:39:18.693Z,9.32
2023-12-19T06:41:47.119Z,8.66
2023-12-19T06:44:15.650Z,8.39
2023-12-19T06:46:46.511Z,8.29
2023-12-19T06:49:18.757Z,8.85
2023-12-19T06:51:49.786Z,8.39
2023-12-19T06:54:18.202Z,8.56
2023-12-19T06:56:46.664Z,9.31
2023-12-19T06:59:17.985Z,9.26
2023-12-19T07:01:46.554Z,8.41
2023-12-19T07:04:15.132Z,8.80
2023-12-19T07:06:46.068Z,8.85
2023-12-19T07:09:15.790Z,9.24
2023-12-19T07:11:44.316Z,9.06
2023-12-19T07:14:15.716Z,9.63
2023-12-19T07:16:44.773Z,8.98
2023-12-19T07:19:13.463Z,8.90
2023-12-19T07:21:47.242Z,9.48
2023-12-19T07:24:15.690Z,9.25
2023-12-19T07:26:44.175Z,9.31
2023-12-19T07:29:15.158Z,9.17
2023-12-19T07:31:43.616Z,8.99
2023-12-19T07:34:12.291Z,8.62
2023-12-19T07:36:43.221Z,8.41
2023-12-19T07:39:11.673Z,9.33
2023-12-19T07:41:40.203Z,9.50
2023-12-19T07:44:12.926Z,9.79
2023-12-19T07:46:42.505Z,9.53
2023-12-19T07:49:11.758Z,8.67
2023-12-19T07:51:42.977Z,9.24
2023-12-19T07:54:11.547Z,9.04
2023-12-19T07:56:45.871Z,9.43
2023-12-19T07:59:14.567Z,7.86
2023-12-19T08:01:51.071Z,9.25
2023-12-19T08:04:19.941Z,9.46
2023-12-19T08:06:48.750Z,9.39
2023-12-19T08:09:20.209Z,9.73
2023-12-19T08:11:49.296Z,9.21
2023-12-19T08:14:17.862Z,8.94
2023-12-19T08:16:48.733Z,9.74
2023-12-19T08:19:20.577Z,10.19
2023-12-19T08:21:58.472Z,9.87
2023-12-19T08:24:28.082Z,10.09
2023-12-19T08:26:56.541Z,9.22
2023-12-19T08:29:27.352Z,9.32
2023-12-19T08:31:55.778Z,9.79
2023-12-19T08:34:24.323Z,9.40
2023-12-19T08:36:55.395Z,9.94
2023-12-19T08:39:23.906Z,9.38
2023-12-19T08:41:52.336Z,9.70
2023-12-19T08:44:23.294Z,9.52
2023-12-19T08:46:51.686Z,9.80
2023-12-19T08:49:20.366Z,9.87
2023-12-19T08:51:49.571Z,9.95
2023-12-19T08:54:18.152Z,9.63
2023-12-19T08:56:46.999Z,9.59
2023-12-19T08:59:15.502Z,9.80
2023-12-19T09:01:44.050Z,9.82
2023-12-19T09:04:12.662Z,10.07
2023-12-19T09:06:41.257Z,9.94
2023-12-19T09:09:13.102Z,9.41
2023-12-19T09:11:42.198Z,9.36
2023-12-19T09:14:13.717Z,9.18
2023-12-19T09:16:43.854Z,9.54
2023-12-19T09:19:15.811Z,9.07
2023-12-19T09:21:44.778Z,9.88
2023-12-19T09:24:13.446Z,9.11
2023-12-19T09:26:41.930Z,9.91
2023-12-19T09:29:10.433Z,9.79
2023-12-19T09:31:39.088Z,9.38
2023-12-19T09:34:11.816Z,9.49
2023-12-19T09:36:50.604Z,9.10
2023-12-19T09:39:25.226Z,9.67
2023-12-19T09:41:54.597Z,9.03
2023-12-19T09:44:26.183Z,8.60
2023-12-19T09:46:55.224Z,8.52
2023-12-19T09:49:25.335Z,9.05
2023-12-19T09:51:55.052Z,9.03
2023-12-19T09:54:24.474Z,9.25
2023-12-19T09:56:57.729Z,8.89
2023-12-19T09:59:27.740Z,8.95
2023-12-19T10:01:57.612Z,9.41
2023-12-19T10:04:26.266Z,9.40
2023-12-19T10:07:01.819Z,9.43
2023-12-19T10:09:30.531Z,9.67
2023-12-19T10:12:06.975Z,9.65
2023-12-19T10:14:35.513Z,8.78
2023-12-19T10:17:08.188Z,8.78
2023-12-19T10:19:39.584Z,9.33
2023-12-19T10:22:09.912Z,8.95
2023-12-19T10:24:39.478Z,8.29
2023-12-19T10:27:08.316Z,8.17
2023-12-19T10:29:40.249Z,9.02
2023-12-19T10:32:19.234Z,9.67
2023-12-19T10:34:56.429Z,9.11
2023-12-19T10:37:36.571Z,9.55
2023-12-19T10:40:20.921Z,9.95
2023-12-19T10:42:57.129Z,9.37
2023-12-19T10:45:26.185Z,8.47
2023-12-19T10:47:55.058Z,8.43
2023-12-19T10:50:24.080Z,8.57
2023-12-19T10:52:55.765Z,9.40
2023-12-19T10:55:28.625Z,9.38
2023-12-19T10:57:59.539Z,9.44
2023-12-19T11:00:28.711Z,8.16
2023-12-19T11:03:12.362Z,8.66
2023-12-19T11:05:49.905Z,8.56
2023-12-19T11:08:23.230Z,8.35
2023-12-19T11:11:03.687Z,8.81
2023-12-19T11:13:34.324Z,8.34
2023-12-19T11:16:20.755Z,9.06
2023-12-19T11:18:58.780Z,8.65
2023-12-19T11:21:43.326Z,9.13
2023-12-19T11:24:31.978Z,8.67
2023-12-19T11:27:19.937Z,9.67
2023-12-19T11:29:55.136Z,8.38
2023-12-19T11:32:30.357Z,9.27
2023-12-19T11:35:11.216Z,9.95
2023-12-19T11:37:47.298Z,9.54
2023-12-19T11:40:48.222Z,8.86
2023-12-19T11:43:29.003Z,9.11
2023-12-19T11:46:18.068Z,9.22
2023-12-19T11:48:51.001Z,9.33
2023-12-19T11:51:44.530Z,9.80
2023-12-19T11:54:14.474Z,9.32
2023-12-19T11:56:43.843Z,9.09
2023-12-19T11:59:12.861Z,9.74
2023-12-19T12:01:42.552Z,9.38
2023-12-19T12:04:12.151Z,10.13
2023-12-19T12:06:43.236Z,9.61
2023-12-19T12:09:11.963Z,9.94
2023-12-19T12:11:52.474Z,10.17
2023-12-19T12:14:22.838Z,9.73
2023-12-19T12:16:52.733Z,9.95
2023-12-19T12:19:23.819Z,8.83
2023-12-19T12:21:54.163Z,9.97
2023-12-19T12:24:32.654Z,9.86
2023-12-19T12:27:12.243Z,9.31
2023-12-19T12:29:41.704Z,8.94
2023-12-19T12:32:10.574Z,9.50
2023-12-19T12:34:39.262Z,10.14
2023-12-19T12:37:08.212Z,8.93
2023-12-19T12:39:36.925Z,9.44
2023-12-19T12:42:07.126Z,10.14
2023-12-19T12:44:36.296Z,10.30
2023-12-19T12:47:06.859Z,9.76
2023-12-19T12:49:36.760Z,9.80
2023-12-19T12:52:05.894Z,9.16
2023-12-19T12:54:34.449Z,10.50
2023-12-19T12:57:13.196Z,9.41
2023-12-19T12:59:41.868Z,9.72
2023-12-19T13:02:10.589Z,10.79
2023-12-19T13:04:39.045Z,10.16
2023-12-19T13:07:07.659Z,9.84
2023-12-19T13:09:36.519Z,9.23
2023-12-19T13:12:05.208Z,9.61
2023-12-19T13:14:33.839Z,10.16
2023-12-19T13:17:02.877Z,9.81
2023-12-19T13:19:31.378Z,10.33
2023-12-19T13:22:00.033Z,10.43
2023-12-19T13:24:28.624Z,10.96
2023-12-19T13:26:57.966Z,10.76
2023-12-19T13:29:26.446Z,9.72
2023-12-19T13:31:55.046Z,10.16
2023-12-19T13:34:25.031Z,10.75
2023-12-19T13:36:53.822Z,10.06
2023-12-19T13:39:22.380Z,10.20
2023-12-19T13:41:53.325Z,10.48
2023-12-19T13:44:22.206Z,9.19
2023-12-19T13:46:51.658Z,10.20
2023-12-19T13:49:20.580Z,9.75
2023-12-19T13:51:49.294Z,9.96
2023-12-19T13:54:18.070Z,10.25
2023-12-19T13:56:46.630Z,10.17
2023-12-19T13:59:15.112Z,9.98
2023-12-19T14:01:43.990Z,10.40
2023-12-19T14:04:14.316Z,10.37
2023-12-19T14:06:45.579Z,9.39
2023-12-19T14:09:20.143Z,10.00
2023-12-19T14:11:49.309Z,10.25
2023-12-19T14:14:20.069Z,9.74
2023-12-19T14:16:48.606Z,9.76
2023-12-19T14:19:17.173Z,10.33
2023-12-19T14:21:46.491Z,10.45
2023-12-19T14:24:16.019Z,9.21
2023-12-19T14:26:45.609Z,10.20
2023-12-19T14:29:14.179Z,10.74
2023-12-19T14:31:45.806Z,9.65
2023-12-19T14:34:14.465Z,9.81
2023-12-19T14:36:47.252Z,10.09
2023-12-19T14:39:16.625Z,9.88
2023-12-19T14:41:48.099Z,10.78
2023-12-19T14:44:17.118Z,10.47
2023-12-19T14:46:45.727Z,10.37
2023-12-19T14:49:14.305Z,10.68
2023-12-19T14:51:43.075Z,11.22
2023-12-19T14:54:11.634Z,10.56
2023-12-19T14:56:40.180Z,10.58
2023-12-19T14:59:10.364Z,10.02
2023-12-19T15:01:39.023Z,10.12
2023-12-19T15:04:08.548Z,10.47
2023-12-19T15:06:38.845Z,10.69
2023-12-19T15:09:08.600Z,10.33
2023-12-19T15:11:37.498Z,11.17
2023-12-19T15:14:06.052Z,10.70
2023-12-19T15:16:34.848Z,9.82
2023-12-19T15:19:03.493Z,11.21
2023-12-19T15:21:32.040Z,10.72
2023-12-19T15:24:00.634Z,10.77
2023-12-19T15:26:29.105Z,11.18
2023-12-19T15:28:57.593Z,11.15
2023-12-19T15:31:26.208Z,10.94
2023-12-19T15:33:55.707Z,10.83
2023-12-19T15:36:24.245Z,10.76
2023-12-19T15:38:52.814Z,11.04
2023-12-19T15:41:22.044Z,10.82
2023-12-19T15:43:58.252Z,10.90
2023-12-19T15:46:34.462Z,11.54
2023-12-19T15:49:04.533Z,11.37
2023-12-19T15:51:33.613Z,10.78
2023-12-19T15:54:04.102Z,10.40
2023-12-19T15:56:33.756Z,11.23
2023-12-19T15:59:04.589Z,10.97
2023-12-19T16:01:33.612Z,11.79
2023-12-19T16:04:02.737Z,11.57
2023-12-19T16:06:32.569Z,11.92
2023-12-19T16:09:01.453Z,10.05
2023-12-19T16:11:30.224Z,10.03
2023-12-19T16:13:58.714Z,10.38
2023-12-19T16:16:27.251Z,9.64
2023-12-19T16:18:56.754Z,10.40
2023-12-19T16:21:25.962Z,11.09
2023-12-19T16:24:01.587Z,11.61
2023-12-19T16:26:33.267Z,11.39
2023-12-19T16:29:02.415Z,10.15
2023-12-19T16:31:33.060Z,9.66
2023-12-19T16:34:03.114Z,10.40
2023-12-19T16:36:32.024Z,9.92
2023-12-19T16:39:00.737Z,10.00
2023-12-19T16:41:30.124Z,11.12
2023-12-19T16:43:58.710Z,10.48
2023-12-19T16:46:32.873Z,10.87
2023-12-19T16:49:08.745Z,11.43
2023-12-19T16:51:37.734Z,11.42
2023-12-19T16:54:06.549Z,11.56
2023-12-19T16:56:36.725Z,11.39
2023-12-19T16:59:06.618Z,10.61
2023-12-19T17:01:35.218Z,10.48
2023-12-19T17:04:03.888Z,9.87
2023-12-19T17:06:32.791Z,10.75
2023-12-19T17:09:03.554Z,10.90
2023-12-19T17:11:31.973Z,11.17
2023-12-19T17:14:00.471Z,11.31
2023-12-19T17:16:29.189Z,10.69
2023-12-19T17:18:58.226Z,9.29
2023-12-19T17:21:26.717Z,9.82
2023-12-19T17:23:55.090Z,9.46
2023-12-19T17:26:25.563Z,9.41
2023-12-19T17:28:54.480Z,10.05
2023-12-19T17:31:23.051Z,9.70
2023-12-19T17:33:51.732Z,10.27
2023-12-19T17:36:22.314Z,10.91
2023-12-19T17:38:51.130Z,10.93
2023-12-19T17:41:20.411Z,11.16
2023-12-19T17:43:48.953Z,11.35
2023-12-19T17:46:18.383Z,10.67
2023-12-19T17:48:47.023Z,11.71
2023-12-19T17:51:15.638Z,11.42
2023-12-19T17:53:44.185Z,10.30
2023-12-19T17:56:12.724Z,10.73
2023-12-19T17:58:41.361Z,10.58
2023-12-19T18:01:10.341Z,10.98
2023-12-19T18:03:39.094Z,11.05
2023-12-19T18:06:07.671Z,9.53
2023-12-19T18:08:41.605Z,9.81
2023-12-19T18:11:10.052Z,9.71
2023-12-19T18:13:38.560Z,9.56
2023-12-19T18:16:07.609Z,10.28
2023-12-19T18:18:36.519Z,10.74
2023-12-19T18:21:05.248Z,10.28
2023-12-19T18:23:35.901Z,10.36
2023-12-19T18:26:06.800Z,11.33
2023-12-19T18:28:35.830Z,11.00
2023-12-19T18:31:04.608Z,10.57
2023-12-19T18:33:33.388Z,11.52
2023-12-19T18:36:02.818Z,11.34
2023-12-19T18:38:31.456Z,11.11
2023-12-19T18:40:59.899Z,11.92
2023-12-19T18:43:28.480Z,12.19
2023-12-19T18:45:57.035Z,11.61
2023-12-19T18:48:26.481Z,11.90
2023-12-19T18:50:54.943Z,12.04
2023-12-19T18:53:24.218Z,12.19
2023-12-19T18:55:52.678Z,12.21
2023-12-19T18:58:21.330Z,11.61
2023-12-19T19:00:50.291Z,12.12
2023-12-19T19:03:19.606Z,11.68
2023-12-19T19:05:48.758Z,11.53
2023-12-19T19:08:17.276Z,11.60
2023-12-19T19:10:45.993Z,11.39
2023-12-19T19:13:16.979Z,11.76
2023-12-19T19:15:45.824Z,11.57
2023-12-19T19:18:14.397Z,11.45
2023-12-19T19:20:43.701Z,11.93
2023-12-19T19:23:17.115Z,11.95
2023-12-19T19:25:46.616Z,11.84
2023-12-19T19:28:17.552Z,11.99
2023-12-19T19:30:48.373Z,11.87
2023-12-19T19:33:17.128Z,11.97
2023-12-19T19:35:45.636Z,12.08
2023-12-19T19:38:14.231Z,11.54
2023-12-19T19:40:44.607Z,12.22
2023-12-19T19:43:13.497Z,11.58
2023-12-19T19:45:42.122Z,11.27
2023-12-19T19:48:12.285Z,10.10
2023-12-19T19:50:42.618Z,11.48
2023-12-19T19:53:11.261Z,11.88
2023-12-19T19:55:40.019Z,11.46
2023-12-19T19:58:08.524Z,11.88
2023-12-19T20:00:38.161Z,11.65
2023-12-19T20:03:07.185Z,11.11
2023-12-19T20:05:36.018Z,11.38
2023-12-19T20:08:04.903Z,10.44
2023-12-19T20:10:33.351Z,10.46
2023-12-19T20:13:01.873Z,10.68
2023-12-19T20:15:30.333Z,10.86
2023-12-19T20:17:58.906Z,11.00
2023-12-19T20:20:27.331Z,11.67
2023-12-19T20:22:55.746Z,11.90
2023-12-19T20:25:24.340Z,11.45
2023-12-19T20:27:53.370Z,11.49
2023-12-19T20:30:22.099Z,10.73
2023-12-19T20:32:51.067Z,11.07
2023-12-19T20:35:19.809Z,10.66
2023-12-19T20:37:48.453Z,10.49
2023-12-19T20:40:19.025Z,10.15
2023-12-19T20:42:48.327Z,11.33
2023-12-19T20:45:17.272Z,10.61
2023-12-19T20:47:45.868Z,10.25
2023-12-19T20:50:14.500Z,10.69
2023-12-19T20:52:50.633Z,11.06
2023-12-19T20:55:25.558Z,11.03
2023-12-19T20:57:54.727Z,11.31
2023-12-19T21:00:26.428Z,10.54
2023-12-19T21:02:55.099Z,10.19
2023-12-19T21:05:23.731Z,10.27
2023-12-19T21:07:52.368Z,10.99
2023-12-19T21:10:21.067Z,11.26
2023-12-19T21:12:50.082Z,11.34
2023-12-19T21:15:18.800Z,10.87
2023-12-19T21:17:47.405Z,9.74
2023-12-19T21:20:16.065Z,10.51
2023-12-19T21:22:44.861Z,10.94
2023-12-19T21:25:13.991Z,10.52
2023-12-19T21:27:42.608Z,10.29
2023-12-19T21:30:11.611Z,10.09
2023-12-19T21:32:42.226Z,9.97
2023-12-19T21:35:11.486Z,10.00
2023-12-19T21:37:40.088Z,8.03
2023-12-19T21:40:09.097Z,8.41
2023-12-19T21:42:37.930Z,8.47
2023-12-19T21:45:06.903Z,8.72
2023-12-19T21:47:35.667Z,8.29
2023-12-19T21:50:04.858Z,9.01
2023-12-19T21:52:33.561Z,9.65
2023-12-19T21:55:04.520Z,10.10
2023-12-19T21:57:34.313Z,9.23
2023-12-19T22:00:03.792Z,10.00
2023-12-19T22:02:32.307Z,10.07
2023-12-19T22:05:01.027Z,10.40
2023-12-19T22:07:29.985Z,11.15
2023-12-19T22:10:02.718Z,11.35
2023-12-19T22:12:32.416Z,10.73
2023-12-19T22:15:01.180Z,11.30
2023-12-19T22:17:29.754Z,11.35
2023-12-19T22:19:58.657Z,11.19
2023-12-19T22:22:27.400Z,10.70
2023-12-19T22:24:55.971Z,11.26
2023-12-19T22:27:24.523Z,11.66
2023-12-19T22:29:53.967Z,11.09
2023-12-19T22:32:22.563Z,10.67
2023-12-19T22:34:51.532Z,10.37
2023-12-19T22:37:20.038Z,10.14
2023-12-19T22:39:49.133Z,10.86
2023-12-19T22:42:17.602Z,10.98
2023-12-19T22:44:46.095Z,10.17
2023-12-19T22:47:15.262Z,10.24
2023-12-19T22:49:43.831Z,10.83
2023-12-19T22:52:12.405Z,11.01
2023-12-19T22:54:41.481Z,10.56
2023-12-19T22:57:10.154Z,10.72
2023-12-19T22:59:38.902Z,9.83
2023-12-19T23:02:07.690Z,9.75
2023-12-19T23:04:41.243Z,10.67
2023-12-19T23:07:09.917Z,10.71
2023-12-19T23:09:45.284Z,9.64
2023-12-19T23:12:14.514Z,9.46
2023-12-19T23:14:43.791Z,9.58
2023-12-19T23:17:12.630Z,9.00
2023-12-19T23:19:41.448Z,10.30
2023-12-19T23:22:10.166Z,8.92
2023-12-19T23:24:38.724Z,9.51
2023-12-19T23:27:07.206Z,10.03
2023-12-19T23:29:35.654Z,9.50
2023-12-19T23:32:04.560Z,9.28
2023-12-19T23:34:33.171Z,9.51
2023-12-19T23:37:01.657Z,9.86
2023-12-19T23:39:30.425Z,9.56
2023-12-19T23:41:59.226Z,9.42
2023-12-19T23:44:27.667Z,9.49
2023-12-19T23:46:56.144Z,10.15
2023-12-19T23:49:24.669Z,9.92
2023-12-19T23:51:53.233Z,9.31
2023-12-19T23:54:21.787Z,8.72
2023-12-19T23:56:50.287Z,8.35
2023-12-19T23:59:18.730Z,8.76
